Time;durP1;ratioP1;P1;durP2;ratioP2;P2;SDS_P1;SDS_P2;PMS_P1;PMS_P2;Temp;Humidity;BMP_temperature;BMP_pressure;BME280_temperature;BME280_humidity;BME280_pressure;Samples;Min_cycle;Max_cycle;Signal;HPM_P1;HPM_P2
2022/01/01 00:00:28;;;;;;;31.13;21.30;;;13.60;99.90;;;;;;2616454;46;20423;-86
2022/01/01 00:02:55;;;;;;;30.10;18.07;;;13.60;99.90;;;;;;2617174;54;20158;-86
2022/01/01 00:05:21;;;;;;;26.30;18.93;;;13.50;99.90;;;;;;2616351;54;20445;-84
2022/01/01 00:07:47;;;;;;;24.53;18.10;;;13.50;99.90;;;;;;2615967;47;20424;-84
2022/01/01 00:10:16;;;;;;;30.17;17.03;;;13.50;99.90;;;;;;2616369;54;20422;-85
2022/01/01 00:12:42;;;;;;;23.40;16.67;;;13.50;99.90;;;;;;2616578;54;20416;-84
2022/01/01 00:15:09;;;;;;;26.13;17.90;;;13.50;99.90;;;;;;2616529;54;20395;-84
2022/01/01 00:17:35;;;;;;;14.70;11.27;;;13.60;99.90;;;;;;2616175;54;20411;-86
2022/01/01 00:20:00;;;;;;;21.10;14.67;;;13.50;99.90;;;;;;2616104;54;20511;-84
2022/01/01 00:22:27;;;;;;;25.10;15.97;;;13.50;99.90;;;;;;2616102;47;20427;-85
2022/01/01 00:24:54;;;;;;;19.93;14.77;;;13.50;99.90;;;;;;2615962;46;20455;-86
2022/01/01 00:27:20;;;;;;;26.10;15.57;;;13.50;99.90;;;;;;2616140;39;20867;-85
2022/01/01 00:29:46;;;;;;;24.10;15.60;;;13.60;99.90;;;;;;2616404;51;20399;-86
2022/01/01 00:32:12;;;;;;;29.17;14.13;;;13.60;99.90;;;;;;2616276;54;20153;-84
2022/01/01 00:34:38;;;;;;;23.43;14.53;;;13.50;99.90;;;;;;2616437;47;20411;-84
2022/01/01 00:37:07;;;;;;;23.53;14.23;;;13.50;99.90;;;;;;2616934;39;20834;-85
2022/01/01 00:39:33;;;;;;;24.40;15.77;;;13.50;99.90;;;;;;2616898;39;20802;-84
2022/01/01 00:41:59;;;;;;;21.53;13.13;;;13.50;99.90;;;;;;2615638;47;20431;-84
2022/01/01 00:44:30;;;;;;;12.73;10.80;;;13.40;99.90;;;;;;2617469;54;20395;-85
2022/01/01 00:46:57;;;;;;;25.00;14.00;;;13.40;99.90;;;;;;2615765;47;20416;-84
2022/01/01 00:49:23;;;;;;;18.17;10.87;;;13.50;99.90;;;;;;2616451;54;20415;-86
2022/01/01 00:51:51;;;;;;;24.77;11.53;;;13.40;99.90;;;;;;2615216;54;20411;-85
2022/01/01 00:54:17;;;;;;;15.13;9.10;;;13.40;99.90;;;;;;2616444;54;20507;-85
2022/01/01 00:56:43;;;;;;;14.67;12.37;;;13.40;99.90;;;;;;2616317;54;20404;-84
2022/01/01 00:59:09;;;;;;;13.80;11.57;;;13.50;99.90;;;;;;2616292;54;20495;-84
2022/01/01 01:01:38;;;;;;;17.23;13.67;;;13.50;99.90;;;;;;2615737;54;20419;-85
2022/01/01 01:04:06;;;;;;;19.27;12.53;;;13.50;99.90;;;;;;2616265;47;20426;-84
2022/01/01 01:06:32;;;;;;;23.33;13.03;;;13.50;99.90;;;;;;2615854;47;20443;-84
2022/01/01 01:09:00;;;;;;;22.03;11.83;;;13.50;99.90;;;;;;2615753;47;20419;-85
2022/01/01 01:11:27;;;;;;;18.97;10.57;;;13.50;99.90;;;;;;2616303;54;20408;-85
2022/01/01 01:14:06;;;;;;;18.17;9.40;;;13.60;99.90;;;;;;2614744;47;20434;-84
2022/01/01 01:16:33;;;;;;;19.17;12.30;;;13.50;99.90;;;;;;2615353;47;20510;-85
2022/01/01 01:18:59;;;;;;;15.87;11.07;;;13.40;99.90;;;;;;2616685;54;21524;-86
2022/01/01 01:21:28;;;;;;;21.73;11.90;;;13.50;99.90;;;;;;2615889;54;20407;-86
2022/01/01 01:23:55;;;;;;;17.67;12.30;;;13.40;99.90;;;;;;2616506;54;20411;-85
2022/01/01 01:26:22;;;;;;;24.13;13.30;;;13.40;99.90;;;;;;2615340;54;20461;-85
2022/01/01 01:28:50;;;;;;;19.63;11.07;;;13.40;99.90;;;;;;2615294;51;20527;-84
2022/01/01 01:31:18;;;;;;;15.93;12.47;;;13.40;99.90;;;;;;2615029;54;20403;-85
2022/01/01 01:33:44;;;;;;;18.97;11.47;;;13.40;99.90;;;;;;2617090;54;20411;-85
2022/01/01 01:36:11;;;;;;;18.30;11.80;;;13.40;99.90;;;;;;2617199;54;20426;-84
2022/01/01 01:38:37;;;;;;;21.60;11.10;;;13.40;99.90;;;;;;2616643;54;20534;-84
2022/01/01 01:41:08;;;;;;;15.40;10.27;;;13.40;99.90;;;;;;2614692;47;20507;-85
2022/01/01 01:43:34;;;;;;;17.17;11.60;;;13.40;99.90;;;;;;2616582;39;20485;-84
2022/01/01 01:46:05;;;;;;;19.93;11.50;;;13.50;99.90;;;;;;2616308;54;20451;-84
2022/01/01 01:48:35;;;;;;;23.23;11.43;;;13.50;99.90;;;;;;2616128;54;20439;-83
2022/01/01 01:51:02;;;;;;;23.30;11.20;;;13.50;99.90;;;;;;2614622;47;20542;-84
2022/01/01 01:53:28;;;;;;;20.63;11.13;;;13.50;99.90;;;;;;2616156;47;21222;-84
2022/01/01 01:55:55;;;;;;;26.50;11.70;;;13.40;99.90;;;;;;2617100;54;20427;-84
2022/01/01 01:58:22;;;;;;;19.93;11.00;;;13.40;99.90;;;;;;2616725;54;20411;-85
2022/01/01 02:03:16;;;;;;;13.80;11.10;;;13.40;99.90;;;;;;2617889;39;20779;-85
2022/01/01 02:05:45;;;;;;;23.23;10.77;;;13.50;99.90;;;;;;2617018;54;20426;-85
2022/01/01 02:08:14;;;;;;;19.03;10.80;;;13.40;99.90;;;;;;2617124;54;20408;-84
2022/01/01 02:10:41;;;;;;;18.33;12.27;;;13.40;99.90;;;;;;2616918;54;20940;-84
2022/01/01 02:13:16;;;;;;;15.40;10.50;;;13.40;99.90;;;;;;2616072;47;21164;-84
2022/01/01 02:18:10;;;;;;;16.23;11.47;;;13.40;99.90;;;;;;2616567;46;20415;-84
2022/01/01 02:20:36;;;;;;;18.47;10.57;;;13.40;99.90;;;;;;2613914;54;21010;-85
2022/01/01 02:23:03;;;;;;;16.93;11.30;;;13.40;99.90;;;;;;2616182;47;20982;-84
2022/01/01 02:25:30;;;;;;;17.77;11.00;;;13.40;99.90;;;;;;2616645;46;20478;-85
2022/01/01 02:27:56;;;;;;;17.37;10.50;;;13.50;99.90;;;;;;2612856;54;20940;-85
2022/01/01 02:30:23;;;;;;;16.17;9.90;;;13.40;99.90;;;;;;2614740;39;20837;-83
2022/01/01 02:32:49;;;;;;;17.13;12.50;;;13.40;99.90;;;;;;2615054;54;20446;-84
2022/01/01 02:35:22;;;;;;;21.40;12.30;;;13.50;99.90;;;;;;2613727;54;20422;-85
2022/01/01 02:37:47;;;;;;;16.10;12.30;;;13.40;99.90;;;;;;2616346;47;20961;-84
2022/01/01 02:40:14;;;;;;;19.77;11.07;;;13.50;99.90;;;;;;2616231;54;20399;-84
2022/01/01 02:42:52;;;;;;;;;;;;;;;;;;;;;
2022/01/01 02:45:20;;;;;;;18.50;12.17;;;13.40;99.90;;;;;;2615784;54;20399;-84
2022/01/01 02:47:47;;;;;;;21.30;12.47;;;13.40;99.90;;;;;;2617170;39;20809;-83
2022/01/01 02:50:13;;;;;;;19.57;11.37;;;13.50;99.90;;;;;;2618147;31;20875;-84
2022/01/01 02:52:39;;;;;;;17.27;10.97;;;13.40;99.90;;;;;;2615063;54;20446;-84
2022/01/01 02:55:06;;;;;;;20.70;12.80;;;13.40;99.90;;;;;;2616282;54;21327;-84
2022/01/01 02:57:34;;;;;;;14.80;10.87;;;13.40;99.90;;;;;;2616000;54;20438;-84
2022/01/01 03:00:00;;;;;;;27.60;12.60;;;13.30;99.90;;;;;;2616390;54;20402;-83
2022/01/01 03:02:26;;;;;;;16.67;11.90;;;13.40;99.90;;;;;;2618015;54;20494;-84
2022/01/01 03:04:52;;;;;;;17.80;15.57;;;13.40;99.90;;;;;;2616742;54;20454;-84
2022/01/01 03:07:18;;;;;;;23.80;12.93;;;13.40;99.90;;;;;;2616132;54;20398;-84
2022/01/01 03:09:44;;;;;;;16.20;11.50;;;13.40;99.90;;;;;;2616659;54;20512;-85
2022/01/01 03:12:13;;;;;;;16.30;12.47;;;13.50;99.90;;;;;;2615731;54;20958;-84
2022/01/01 03:14:39;;;;;;;20.53;13.40;;;13.50;99.90;;;;;;2615368;47;20418;-83
2022/01/01 03:17:06;;;;;;;20.37;13.90;;;13.60;99.90;;;;;;2615201;39;20798;-84
2022/01/01 03:19:32;;;;;;;21.53;13.73;;;13.50;99.90;;;;;;2615925;54;20430;-83
2022/01/01 03:21:59;;;;;;;19.83;13.20;;;13.50;99.90;;;;;;2616820;54;20515;-84
2022/01/01 03:24:26;;;;;;;24.73;13.73;;;13.50;99.90;;;;;;2616677;39;20818;-85
2022/01/01 03:26:52;;;;;;;18.87;13.23;;;13.50;99.90;;;;;;2613359;47;20439;-84
2022/01/01 03:29:19;;;;;;;22.13;13.47;;;13.60;99.90;;;;;;2614490;54;20427;-85
2022/01/01 03:31:44;;;;;;;19.00;13.80;;;13.50;99.90;;;;;;2615458;54;20395;-85
2022/01/01 03:34:11;;;;;;;21.67;15.33;;;13.50;99.90;;;;;;2615014;54;20443;-85
2022/01/01 03:36:37;;;;;;;18.43;13.33;;;13.50;99.90;;;;;;2616606;54;20950;-84
2022/01/01 03:39:05;;;;;;;27.13;15.80;;;13.50;99.90;;;;;;2616487;54;20499;-84
2022/01/01 03:41:31;;;;;;;30.37;16.10;;;13.50;99.90;;;;;;2614374;54;20518;-84
2022/01/01 03:43:57;;;;;;;24.17;15.13;;;13.50;99.90;;;;;;2614721;54;20398;-84
2022/01/01 03:46:23;;;;;;;26.43;15.47;;;13.60;99.90;;;;;;2614733;47;20498;-83
2022/01/01 03:48:49;;;;;;;20.10;13.67;;;13.50;99.90;;;;;;2614638;54;20181;-84
2022/01/01 03:51:15;;;;;;;23.20;12.67;;;13.50;99.90;;;;;;2614637;54;20151;-82
2022/01/01 03:53:41;;;;;;;23.03;14.07;;;13.60;99.90;;;;;;2614565;54;20503;-85
2022/01/01 03:56:09;;;;;;;19.93;14.70;;;13.50;99.90;;;;;;2615381;47;20420;-84
2022/01/01 03:58:35;;;;;;;21.03;12.80;;;13.60;99.90;;;;;;2617016;54;20424;-84
2022/01/01 04:01:01;;;;;;;14.77;12.60;;;13.50;99.90;;;;;;2615076;54;20419;-85
2022/01/01 04:03:27;;;;;;;22.87;12.03;;;13.50;99.90;;;;;;2613418;54;20153;-85
2022/01/01 04:05:53;;;;;;;27.03;12.27;;;13.50;99.90;;;;;;2615910;54;20416;-83
2022/01/01 04:08:19;;;;;;;18.90;13.67;;;13.50;99.90;;;;;;2616896;54;20420;-86
2022/01/01 04:10:45;;;;;;;28.23;13.87;;;13.50;99.90;;;;;;2616752;39;20793;-84
2022/01/01 04:13:11;;;;;;;20.77;12.93;;;13.60;99.90;;;;;;2615626;54;20399;-83
2022/01/01 04:15:39;;;;;;;18.33;12.60;;;13.70;99.90;;;;;;2615937;47;20446;-84
2022/01/01 04:18:12;;;;;;;19.70;14.83;;;13.60;99.90;;;;;;2615024;47;20427;-84
2022/01/01 04:20:39;;;;;;;23.73;12.40;;;13.60;99.90;;;;;;2614823;39;21077;-84
2022/01/01 04:23:09;;;;;;;19.00;13.67;;;13.70;99.90;;;;;;2615961;46;20446;-83
2022/01/01 04:25:36;;;;;;;17.77;12.97;;;13.80;99.90;;;;;;2615791;39;20827;-84
2022/01/01 04:28:02;;;;;;;16.07;13.10;;;13.90;99.90;;;;;;2616689;54;20419;-85
2022/01/01 04:30:29;;;;;;;23.07;14.60;;;13.80;99.90;;;;;;2616109;54;20526;-84
2022/01/01 04:32:58;;;;;;;17.60;12.30;;;13.90;99.90;;;;;;2615171;47;20531;-84
2022/01/01 04:35:25;;;;;;;22.27;13.63;;;13.70;99.90;;;;;;2615949;54;20406;-84
2022/01/01 04:37:51;;;;;;;27.93;14.50;;;13.40;99.90;;;;;;2616086;54;20967;-83
2022/01/01 04:40:17;;;;;;;23.80;13.90;;;13.70;99.90;;;;;;2616591;54;20443;-86
2022/01/01 04:42:43;;;;;;;27.70;14.03;;;13.70;99.90;;;;;;2614779;47;20935;-84
2022/01/01 04:45:12;;;;;;;26.23;13.23;;;13.70;99.90;;;;;;2615956;47;20439;-83
2022/01/01 04:47:38;;;;;;;18.93;13.23;;;13.50;99.90;;;;;;2614990;54;20407;-84
2022/01/01 04:50:07;;;;;;;23.67;13.43;;;13.70;99.90;;;;;;2616373;47;20461;-85
2022/01/01 04:52:33;;;;;;;20.27;12.83;;;13.60;99.90;;;;;;2616451;54;20419;-85
2022/01/01 04:54:59;;;;;;;16.80;11.80;;;13.50;99.90;;;;;;2615786;54;20416;-83
2022/01/01 04:57:30;;;;;;;27.53;12.77;;;13.40;99.90;;;;;;2615573;47;20423;-85
2022/01/01 04:59:57;;;;;;;18.23;10.97;;;13.40;99.90;;;;;;2615439;54;20188;-83
2022/01/01 05:02:24;;;;;;;27.27;11.93;;;13.40;99.90;;;;;;2616752;39;20794;-85
2022/01/01 05:04:51;;;;;;;16.70;10.30;;;13.40;99.90;;;;;;2615532;54;20439;-84
2022/01/01 05:07:17;;;;;;;19.57;11.30;;;13.40;99.90;;;;;;2616112;39;20488;-85
2022/01/01 05:09:43;;;;;;;15.60;9.03;;;13.50;99.90;;;;;;2615627;54;20419;-86
2022/01/01 05:12:09;;;;;;;24.97;12.20;;;13.40;99.90;;;;;;2614009;54;20163;-85
2022/01/01 05:14:35;;;;;;;17.73;10.60;;;13.50;99.90;;;;;;2615052;54;21946;-86
2022/01/01 05:17:01;;;;;;;22.73;10.80;;;13.40;99.90;;;;;;2614650;54;20423;-84
2022/01/01 05:19:27;;;;;;;16.50;10.03;;;13.50;99.90;;;;;;2615626;39;20854;-85
2022/01/01 05:21:55;;;;;;;12.23;9.20;;;13.50;99.90;;;;;;2613251;54;20420;-85
2022/01/01 05:24:22;;;;;;;14.13;10.50;;;13.50;99.90;;;;;;2615542;47;20174;-85
2022/01/01 05:26:48;;;;;;;16.53;8.97;;;13.50;99.90;;;;;;2615338;47;20470;-86
2022/01/01 05:29:14;;;;;;;11.13;7.20;;;13.50;99.90;;;;;;2615399;54;20426;-85
2022/01/01 05:31:40;;;;;;;19.30;9.80;;;13.40;99.90;;;;;;2615017;54;20423;-85
2022/01/01 05:34:06;;;;;;;21.40;9.33;;;13.50;99.90;;;;;;2614555;54;20418;-85
2022/01/01 05:36:32;;;;;;;11.67;8.07;;;13.50;99.90;;;;;;2615374;47;20171;-85
2022/01/01 05:38:57;;;;;;;12.70;8.17;;;13.50;99.90;;;;;;2616046;39;20554;-86
2022/01/01 05:41:24;;;;;;;12.83;7.60;;;13.50;99.90;;;;;;2616472;39;20576;-86
2022/01/01 05:43:50;;;;;;;11.30;8.80;;;13.50;99.90;;;;;;2614528;54;20932;-84
2022/01/01 05:46:16;;;;;;;11.10;7.83;;;13.50;99.90;;;;;;2615367;54;20411;-84
2022/01/01 05:48:51;;;;;;;12.50;8.30;;;13.60;99.90;;;;;;2616573;54;20230;-85
2022/01/01 05:51:23;;;;;;;10.43;7.20;;;13.50;99.90;;;;;;2614266;54;20423;-84
2022/01/01 05:53:49;;;;;;;12.97;8.00;;;13.50;99.90;;;;;;2613533;54;20409;-85
2022/01/01 05:56:15;;;;;;;13.10;7.87;;;13.60;99.90;;;;;;2615589;47;20519;-83
2022/01/01 05:58:41;;;;;;;13.70;7.07;;;13.60;99.90;;;;;;2615441;54;20427;-83
2022/01/01 06:01:07;;;;;;;17.63;7.97;;;13.60;99.90;;;;;;2614635;47;20173;-85
2022/01/01 06:03:32;;;;;;;20.13;8.13;;;13.50;99.90;;;;;;2614633;54;20208;-85
2022/01/01 06:05:58;;;;;;;11.17;7.20;;;13.60;99.90;;;;;;2615311;54;21347;-84
2022/01/01 06:08:28;;;;;;;15.20;7.60;;;13.60;99.90;;;;;;2615918;47;20173;-85
2022/01/01 06:10:57;;;;;;;12.10;8.40;;;13.50;99.90;;;;;;2615250;54;20155;-86
2022/01/01 06:13:23;;;;;;;17.40;8.43;;;13.70;99.90;;;;;;2615565;54;20415;-85
2022/01/01 06:15:49;;;;;;;8.07;5.00;;;13.60;99.90;;;;;;2615934;54;20411;-85
2022/01/01 06:18:15;;;;;;;11.50;7.57;;;13.60;99.90;;;;;;2614628;54;20463;-86
2022/01/01 06:20:42;;;;;;;10.97;7.13;;;13.60;99.90;;;;;;2615889;46;20518;-84
2022/01/01 06:23:08;;;;;;;11.50;7.17;;;13.60;99.90;;;;;;2614425;54;20683;-84
2022/01/01 06:25:35;;;;;;;15.33;9.30;;;13.60;99.90;;;;;;2614664;54;20432;-85
2022/01/01 06:28:01;;;;;;;19.73;8.90;;;13.60;99.90;;;;;;2615471;54;20523;-84
2022/01/01 06:30:33;;;;;;;9.70;8.17;;;13.50;99.90;;;;;;2615480;54;20457;-84
2022/01/01 06:33:21;;;;;;;14.83;7.67;;;13.50;99.90;;;;;;2614566;47;20427;-85
2022/01/01 06:35:48;;;;;;;10.07;6.63;;;14.00;99.90;;;;;;2615009;54;20414;-86
2022/01/01 06:38:15;;;;;;;13.43;7.63;;;13.80;99.90;;;;;;2613897;54;20460;-85
2022/01/01 06:40:43;;;;;;;12.00;7.73;;;13.60;99.90;;;;;;2614858;47;20555;-84
2022/01/01 06:43:13;;;;;;;11.50;5.90;;;13.50;99.90;;;;;;2616427;54;20423;-85
2022/01/01 06:45:40;;;;;;;13.23;8.47;;;13.50;99.90;;;;;;2614833;47;20454;-84
2022/01/01 06:48:06;;;;;;;14.17;7.83;;;13.60;99.90;;;;;;2616274;54;20435;-84
2022/01/01 06:50:33;;;;;;;12.50;8.00;;;13.50;99.90;;;;;;2615417;54;20418;-84
2022/01/01 06:52:59;;;;;;;16.80;9.00;;;13.50;99.90;;;;;;2613415;54;20407;-85
2022/01/01 06:55:25;;;;;;;16.17;8.47;;;13.60;99.90;;;;;;2615783;47;20414;-85
2022/01/01 06:57:50;;;;;;;12.30;6.77;;;13.60;99.90;;;;;;2617620;31;20869;-85
2022/01/01 07:00:17;;;;;;;12.73;7.00;;;13.80;99.90;;;;;;2616744;54;20407;-84
2022/01/01 07:02:47;;;;;;;11.37;6.80;;;13.70;99.90;;;;;;2616746;54;20431;-84
2022/01/01 07:05:22;;;;;;;9.20;6.53;;;13.70;99.90;;;;;;2617122;54;20442;-85
2022/01/01 07:07:48;;;;;;;10.70;6.33;;;13.90;99.90;;;;;;2617145;54;20423;-84
2022/01/01 07:10:14;;;;;;;9.53;7.27;;;13.80;99.90;;;;;;2616571;51;20423;-85
2022/01/01 07:12:41;;;;;;;7.20;5.70;;;13.80;99.90;;;;;;2614200;54;20983;-84
2022/01/01 07:15:08;;;;;;;14.00;6.73;;;13.70;99.90;;;;;;2615244;47;20269;-84
2022/01/01 07:17:34;;;;;;;13.70;7.43;;;13.60;99.90;;;;;;2615878;54;22608;-84
2022/01/01 07:20:00;;;;;;;8.73;5.93;;;13.70;99.90;;;;;;2616055;47;20425;-85
2022/01/01 07:22:26;;;;;;;10.23;5.97;;;13.70;99.90;;;;;;2616078;47;20169;-85
2022/01/01 07:24:52;;;;;;;7.70;6.93;;;13.60;99.90;;;;;;2615217;54;20438;-84
2022/01/01 07:27:20;;;;;;;11.23;5.83;;;13.60;99.90;;;;;;2616363;54;20456;-85
2022/01/01 07:29:46;;;;;;;11.87;5.37;;;13.60;99.90;;;;;;2614933;47;20446;-86
2022/01/01 07:32:12;;;;;;;12.00;5.97;;;13.60;99.90;;;;;;2615328;46;20444;-86
2022/01/01 07:34:38;;;;;;;9.50;6.00;;;13.60;99.90;;;;;;2615508;47;20944;-86
2022/01/01 07:37:04;;;;;;;11.30;6.50;;;13.50;99.90;;;;;;2612904;54;20155;-85
2022/01/01 07:39:31;;;;;;;10.27;5.50;;;13.60;99.90;;;;;;2613942;54;20154;-84
2022/01/01 07:41:56;;;;;;;13.60;5.97;;;13.70;99.90;;;;;;2613018;47;22224;-86
2022/01/01 07:44:22;;;;;;;8.67;5.23;;;13.60;99.90;;;;;;2616263;54;20531;-84
2022/01/01 07:46:50;;;;;;;11.80;6.40;;;13.70;99.90;;;;;;2613684;54;20400;-85
2022/01/01 07:49:17;;;;;;;8.40;6.23;;;13.70;99.90;;;;;;2615653;54;20147;-85
2022/01/01 07:51:45;;;;;;;9.67;5.40;;;13.80;99.90;;;;;;2615896;46;20486;-85
2022/01/01 07:54:11;;;;;;;6.30;4.63;;;13.60;99.90;;;;;;2616396;54;20411;-85
2022/01/01 07:56:37;;;;;;;11.70;5.33;;;13.80;99.90;;;;;;2615608;47;20502;-85
2022/01/01 07:59:03;;;;;;;10.63;5.70;;;13.80;99.90;;;;;;2615981;47;20183;-84
2022/01/01 08:01:29;;;;;;;14.83;5.40;;;13.70;99.90;;;;;;2615366;54;20829;-85
2022/01/01 08:04:01;;;;;;;6.43;4.63;;;13.70;99.90;;;;;;2614499;54;20262;-86
2022/01/01 08:06:28;;;;;;;12.80;5.43;;;13.60;99.90;;;;;;2615113;47;20163;-86
2022/01/01 08:08:54;;;;;;;12.07;4.70;;;13.60;99.90;;;;;;2615960;54;25376;-86
2022/01/01 08:11:20;;;;;;;7.23;5.50;;;13.50;99.90;;;;;;2615645;54;20412;-86
2022/01/01 08:13:46;;;;;;;5.90;4.73;;;13.60;99.90;;;;;;2616294;54;20160;-86
2022/01/01 08:16:12;;;;;;;11.83;4.87;;;13.70;99.90;;;;;;2615210;54;20471;-85
2022/01/01 08:18:38;;;;;;;7.60;5.00;;;13.80;99.90;;;;;;2615496;47;20527;-84
2022/01/01 08:21:04;;;;;;;7.53;5.07;;;13.60;99.90;;;;;;2615386;54;20520;-86
2022/01/01 08:23:30;;;;;;;8.80;5.40;;;13.50;99.90;;;;;;2614728;54;20427;-85
2022/01/01 08:25:58;;;;;;;10.43;5.20;;;13.70;99.90;;;;;;2615008;54;20439;-86
2022/01/01 08:28:24;;;;;;;6.50;5.00;;;13.80;99.90;;;;;;2617282;39;20838;-85
2022/01/01 08:30:50;;;;;;;9.70;4.60;;;13.80;99.90;;;;;;2617381;54;20406;-86
2022/01/01 08:33:17;;;;;;;7.40;4.27;;;13.90;99.90;;;;;;2615694;47;20554;-85
2022/01/01 08:35:42;;;;;;;9.83;4.03;;;14.00;99.90;;;;;;2615538;47;20174;-86
2022/01/01 08:38:10;;;;;;;10.03;4.73;;;13.80;99.90;;;;;;2615684;54;20521;-86
2022/01/01 08:40:36;;;;;;;5.53;4.60;;;13.70;99.90;;;;;;2616366;54;20424;-86
2022/01/01 08:43:02;;;;;;;11.80;4.20;;;13.80;99.90;;;;;;2616548;54;20408;-85
2022/01/01 08:45:28;;;;;;;14.10;4.97;;;13.80;99.90;;;;;;2616484;47;20982;-87
2022/01/01 08:47:54;;;;;;;7.73;3.63;;;13.80;99.90;;;;;;2616925;54;20498;-86
2022/01/01 08:50:20;;;;;;;6.60;3.80;;;13.80;99.90;;;;;;2616712;47;20939;-86
2022/01/01 08:52:46;;;;;;;8.20;4.83;;;13.80;99.90;;;;;;2617357;54;20505;-86
2022/01/01 08:55:12;;;;;;;10.13;4.63;;;14.00;99.90;;;;;;2615966;54;20257;-85
2022/01/01 08:57:38;;;;;;;8.40;4.17;;;13.90;99.90;;;;;;2616087;54;20153;-86
2022/01/01 09:00:10;;;;;;;5.03;3.30;;;13.90;99.90;;;;;;2616741;54;20416;-85
2022/01/01 09:02:36;;;;;;;10.13;4.37;;;13.90;99.90;;;;;;2614780;54;20532;-86
2022/01/01 09:05:03;;;;;;;5.23;4.20;;;13.90;99.90;;;;;;2616208;54;20959;-84
2022/01/01 09:07:29;;;;;;;10.40;4.80;;;13.90;99.90;;;;;;2617344;46;20446;-84
2022/01/01 09:10:00;;;;;;;12.13;3.77;;;13.90;99.90;;;;;;2616609;54;20418;-85
2022/01/01 09:12:27;;;;;;;6.00;4.93;;;13.90;99.90;;;;;;2615446;39;20814;-86
2022/01/01 09:14:54;;;;;;;6.43;5.00;;;14.00;99.90;;;;;;2616367;54;20404;-85
2022/01/01 09:17:20;;;;;;;10.97;4.43;;;14.20;99.90;;;;;;2615839;47;20424;-85
2022/01/01 09:19:46;;;;;;;8.90;4.37;;;14.70;99.90;;;;;;2616251;47;20415;-85
2022/01/01 09:22:12;;;;;;;6.73;4.33;;;14.90;99.90;;;;;;2617134;54;20407;-85
2022/01/01 09:24:38;;;;;;;9.23;4.27;;;15.10;99.90;;;;;;2616241;54;20439;-86
2022/01/01 09:27:04;;;;;;;14.33;5.40;;;15.30;99.90;;;;;;2617310;54;20530;-86
2022/01/01 09:29:31;;;;;;;9.17;4.40;;;15.40;99.90;;;;;;2617921;39;20804;-86
2022/01/01 09:31:58;;;;;;;5.23;3.00;;;14.90;99.90;;;;;;2616200;47;20434;-86
2022/01/01 09:34:26;;;;;;;10.30;3.77;;;14.90;99.90;;;;;;2616867;54;20414;-87
2022/01/01 09:36:54;;;;;;;4.40;3.10;;;15.00;99.90;;;;;;2616490;54;20458;-86
2022/01/01 09:39:21;;;;;;;13.33;3.83;;;14.90;99.90;;;;;;2616879;54;20407;-86
2022/01/01 09:41:47;;;;;;;7.90;4.33;;;15.10;99.90;;;;;;2616506;47;20948;-86
2022/01/01 09:44:18;;;;;;;4.97;3.10;;;15.60;99.90;;;;;;2617217;47;20438;-86
2022/01/01 09:46:47;;;;;;;6.37;3.83;;;16.20;99.90;;;;;;2617796;54;20998;-86
2022/01/01 09:49:15;;;;;;;3.10;2.80;;;16.30;99.90;;;;;;2617238;54;20952;-86
2022/01/01 09:51:47;;;;;;;10.67;3.00;;;16.30;99.90;;;;;;2617351;54;20959;-87
2022/01/01 09:54:13;;;;;;;6.17;3.30;;;16.90;99.90;;;;;;2662999;36;20475;-86
2022/01/01 09:56:40;;;;;;;6.07;4.30;;;16.80;99.90;;;;;;2618363;31;20883;-85
2022/01/01 09:59:07;;;;;;;5.73;3.10;;;17.50;99.90;;;;;;2617183;47;20431;-85
2022/01/01 10:01:34;;;;;;;7.00;3.47;;;17.30;99.90;;;;;;2617472;54;20412;-85
2022/01/01 10:04:00;;;;;;;7.13;3.57;;;16.30;99.90;;;;;;2616260;54;20432;-85
2022/01/01 10:06:29;;;;;;;8.13;3.60;;;15.60;99.90;;;;;;2615721;47;20408;-85
2022/01/01 10:09:03;;;;;;;7.77;3.43;;;15.50;99.90;;;;;;2616314;39;20654;-86
2022/01/01 10:11:30;;;;;;;4.70;3.80;;;15.40;99.90;;;;;;2616533;54;20456;-84
2022/01/01 10:13:57;;;;;;;5.67;3.17;;;15.60;99.90;;;;;;2616256;54;20427;-85
2022/01/01 10:16:23;;;;;;;6.63;3.93;;;15.60;99.90;;;;;;2618151;51;20427;-88
2022/01/01 10:18:52;;;;;;;7.43;3.33;;;15.50;99.90;;;;;;2618326;54;20560;-88
2022/01/01 10:21:21;;;;;;;3.33;3.03;;;15.60;99.90;;;;;;2618459;31;21113;-87
2022/01/01 10:23:52;;;;;;;9.87;3.67;;;15.40;99.90;;;;;;2636299;36;20550;-86
2022/01/01 10:29:26;;;;;;;8.03;4.97;;;15.90;99.90;;;;;;2618361;54;20410;-85
2022/01/01 10:32:11;;;;;;;4.47;3.20;;;16.10;99.90;;;;;;2614262;54;20395;-86
2022/01/01 10:34:43;;;;;;;4.50;2.50;;;15.60;99.90;;;;;;2612147;54;20430;-85
2022/01/01 10:37:11;;;;;;;3.40;3.10;;;15.40;99.90;;;;;;2615630;54;21083;-88
2022/01/01 10:39:54;;;;;;;8.20;3.80;;;15.70;99.90;;;;;;2616640;54;20415;-86
2022/01/01 10:42:20;;;;;;;9.43;4.07;;;16.70;99.90;;;;;;2616107;39;20877;-86
2022/01/01 10:44:48;;;;;;;6.17;2.60;;;16.30;99.90;;;;;;2616850;31;20794;-86
2022/01/01 10:47:25;;;;;;;3.77;3.30;;;16.50;99.90;;;;;;2616321;54;20408;-86
2022/01/01 10:50:13;;;;;;;6.73;3.53;;;16.30;99.90;;;;;;2616734;54;20427;-85
2022/01/01 10:52:36;;;;;;;3.63;2.33;;;16.60;99.90;;;;;;2616678;39;20835;-86
2022/01/01 10:55:05;;;;;;;8.30;3.23;;;16.40;99.90;;;;;;2616228;47;20494;-84
2022/01/01 10:57:40;;;;;;;3.93;2.73;;;16.60;99.90;;;;;;2616781;47;20435;-86
2022/01/01 11:00:21;;;;;;;4.87;3.00;;;16.80;99.90;;;;;;2617788;54;20459;-85
2022/01/01 11:02:54;;;;;;;5.17;2.60;;;17.20;99.90;;;;;;2616376;54;20407;-86
2022/01/01 11:05:28;;;;;;;7.13;3.97;;;18.00;99.90;;;;;;2617734;39;20811;-86
2022/01/01 11:07:58;;;;;;;5.50;3.10;;;18.80;99.90;;;;;;2617014;54;20410;-87
2022/01/01 11:10:24;;;;;;;8.90;3.33;;;19.40;99.90;;;;;;2617058;39;20851;-86
2022/01/01 11:12:51;;;;;;;4.67;2.60;;;19.70;99.60;;;;;;2617218;46;20403;-86
2022/01/01 11:15:24;;;;;;;5.37;2.60;;;18.20;99.90;;;;;;2618317;39;21176;-86
2022/01/01 11:17:50;;;;;;;3.50;2.70;;;17.70;99.90;;;;;;2616674;31;20788;-84
2022/01/01 11:20:17;;;;;;;4.10;2.70;;;17.00;99.90;;;;;;2615810;47;20505;-85
2022/01/01 11:22:43;;;;;;;4.97;3.10;;;16.50;99.90;;;;;;2618524;39;20836;-84
2022/01/01 11:25:10;;;;;;;11.97;4.37;;;16.40;99.90;;;;;;2616658;47;20432;-85
2022/01/01 11:27:36;;;;;;;3.57;3.27;;;16.50;99.90;;;;;;2618332;54;20940;-86
2022/01/01 11:30:13;;;;;;;5.77;3.23;;;16.50;99.90;;;;;;2618693;54;20474;-85
2022/01/01 11:32:54;;;;;;;6.07;3.30;;;16.80;99.90;;;;;;2617906;54;20462;-84
2022/01/01 11:35:43;;;;;;;6.53;3.23;;;16.60;99.90;;;;;;2617661;54;20491;-87
2022/01/01 11:38:13;;;;;;;7.57;3.63;;;16.50;99.90;;;;;;2618498;46;20967;-86
2022/01/01 11:40:59;;;;;;;6.27;3.30;;;16.50;99.90;;;;;;2617011;54;20403;-86
2022/01/01 11:43:46;;;;;;;9.43;3.90;;;16.60;99.90;;;;;;2617307;54;20433;-86
2022/01/01 11:46:19;;;;;;;3.40;2.73;;;16.80;99.90;;;;;;2617271;39;23159;-87
2022/01/01 11:48:49;;;;;;;11.33;2.90;;;17.30;99.90;;;;;;2617073;47;20418;-86
2022/01/01 11:51:38;;;;;;;4.83;2.70;;;18.30;99.90;;;;;;2617453;46;20441;-86
2022/01/01 11:54:25;;;;;;;4.10;2.90;;;18.60;99.90;;;;;;2616647;47;20423;-85
2022/01/01 11:56:55;;;;;;;4.53;2.80;;;18.40;99.90;;;;;;2617482;54;20406;-85
2022/01/01 11:59:41;;;;;;;3.83;2.53;;;18.60;99.90;;;;;;2616320;54;20404;-86
2022/01/01 12:02:19;;;;;;;5.23;3.13;;;18.10;99.90;;;;;;2617046;46;20414;-85
2022/01/01 12:04:51;;;;;;;5.00;2.47;;;17.90;99.90;;;;;;2616218;54;20412;-85
2022/01/01 12:07:19;;;;;;;6.53;3.20;;;17.60;99.90;;;;;;2617007;47;20444;-85
2022/01/01 12:09:48;;;;;;;4.13;2.60;;;17.40;99.90;;;;;;2617186;54;21373;-86
2022/01/01 12:12:17;;;;;;;5.60;2.30;;;17.60;99.90;;;;;;2616793;47;20455;-85
2022/01/01 12:14:45;;;;;;;3.83;2.40;;;17.50;99.90;;;;;;2616653;54;20391;-85
2022/01/01 12:17:17;;;;;;;3.00;2.37;;;17.20;99.90;;;;;;2617258;54;20388;-87
2022/01/01 12:19:43;;;;;;;4.50;3.30;;;16.70;99.90;;;;;;2617642;54;20995;-86
2022/01/01 12:22:09;;;;;;;6.80;3.23;;;17.20;99.90;;;;;;2616866;54;20451;-85
2022/01/01 12:24:39;;;;;;;13.60;5.47;;;17.50;99.90;;;;;;2617923;54;20487;-86
2022/01/01 12:27:10;;;;;;;5.30;2.90;;;17.30;99.90;;;;;;2616267;47;20477;-86
2022/01/01 12:29:37;;;;;;;5.13;2.77;;;17.20;99.90;;;;;;2616920;54;20424;-86
2022/01/01 12:32:05;;;;;;;3.47;2.73;;;17.40;99.90;;;;;;2616562;54;20412;-85
2022/01/01 12:34:32;;;;;;;7.03;3.60;;;17.60;99.90;;;;;;2616515;54;20492;-85
2022/01/01 12:36:58;;;;;;;5.03;3.00;;;17.10;99.90;;;;;;2616596;47;20472;-86
2022/01/01 12:39:25;;;;;;;5.40;3.47;;;17.00;99.90;;;;;;2617529;39;20846;-85
2022/01/01 12:41:54;;;;;;;4.10;3.00;;;16.90;99.90;;;;;;2617291;54;20455;-86
2022/01/01 12:44:31;;;;;;;5.67;2.97;;;17.10;99.90;;;;;;2616563;47;21488;-86
2022/01/01 12:47:01;;;;;;;3.07;2.60;;;17.10;99.90;;;;;;2617857;54;20420;-86
2022/01/01 12:49:32;;;;;;;4.47;3.40;;;17.00;99.90;;;;;;2617378;54;21043;-86